Time;durP1;ratioP1;P1;durP2;ratioP2;P2;SDS_P1;SDS_P2;PMS_P1;PMS_P2;Temp;Humidity;BMP_temperature;BMP_pressure;BME280_temperature;BME280_humidity;BME280_pressure;Samples;Min_cycle;Max_cycle;Signal;HPM_P1;HPM_P2
2022/10/01 00:00:50;;;;;;;3.95;2.78;;;;;;;16.18;nan;-24268.06;5074081;28;20179;-73
2022/10/01 00:03:17;;;;;;;3.85;2.63;;;;;;;16.56;nan;-24278.69;5076597;28;20178;-74
2022/10/01 00:05:43;;;;;;;4.18;2.90;;;;;;;16.42;nan;-24274.78;5073896;28;20173;-75
2022/10/01 00:08:09;;;;;;;5.10;3.25;;;;;;;16.04;nan;-24264.16;5075788;28;20560;-74
2022/10/01 00:10:37;;;;;;;5.95;2.90;;;;;;;16.13;nan;-24266.66;5063305;28;20202;-73
2022/10/01 00:13:02;;;;;;;3.28;2.70;;;;;;;16.20;nan;-24268.63;5074362;28;20748;-75
2022/10/01 00:15:28;;;;;;;5.22;2.97;;;;;;;15.88;nan;-24259.81;5076484;28;20255;-74
2022/10/01 00:17:53;;;;;;;3.63;2.70;;;;;;;15.89;nan;-24260.09;5075352;28;20223;-73
2022/10/01 00:20:19;;;;;;;5.40;2.80;;;;;;;16.01;nan;-24263.31;5064594;28;20649;-73
2022/10/01 00:22:46;;;;;;;4.22;2.65;;;;;;;16.21;nan;-24269.03;5079527;28;20666;-73
2022/10/01 00:25:12;;;;;;;6.00;3.05;;;;;;;16.28;nan;-24270.84;5075694;28;20224;-75
2022/10/01 00:27:38;;;;;;;3.42;2.67;;;;;;;16.03;nan;-24263.88;5078345;28;20241;-73
2022/10/01 00:30:05;;;;;;;3.50;2.63;;;;;;;15.97;nan;-24262.19;5075832;28;20182;-74
2022/10/01 00:32:31;;;;;;;3.90;2.63;;;;;;;15.97;nan;-24262.19;5076499;28;20178;-73
2022/10/01 00:34:59;;;;;;;3.90;2.78;;;;;;;16.03;nan;-24264.00;5076552;28;20638;-77
2022/10/01 00:37:24;;;;;;;5.78;2.83;;;;;;;15.97;nan;-24262.19;5078697;28;20235;-76
2022/10/01 00:39:50;;;;;;;4.43;3.10;;;;;;;15.59;nan;-24251.84;5078848;28;20174;-76
2022/10/01 00:42:18;;;;;;;3.55;2.53;;;;;;;15.98;nan;-24262.47;5083085;28;20213;-73
2022/10/01 00:44:43;;;;;;;3.75;2.70;;;;;;;15.85;nan;-24259.13;5077430;28;20260;-74
2022/10/01 00:47:21;;;;;;;4.97;3.10;;;;;;;16.13;nan;-24266.81;5076420;28;20727;-73
2022/10/01 00:49:49;;;;;;;4.22;2.75;;;;;;;15.94;nan;-24261.34;5077111;28;20184;-73
2022/10/01 00:52:24;;;;;;;3.60;3.00;;;;;;;15.46;nan;-24248.19;5065425;28;20189;-71
2022/10/01 00:54:56;;;;;;;6.28;2.65;;;;;;;15.49;nan;-24249.16;5075526;28;20181;-72
2022/10/01 00:57:25;;;;;;;4.15;2.90;;;;;;;15.47;nan;-24248.47;5077098;28;20280;-71
2022/10/01 00:59:54;;;;;;;3.90;2.72;;;;;;;15.79;nan;-24257.28;5076756;28;20193;-75
2022/10/01 01:02:19;;;;;;;5.55;3.05;;;;;;;15.79;nan;-24257.44;5074626;28;20173;-74
2022/10/01 01:04:45;;;;;;;5.28;2.85;;;;;;;15.37;nan;-24245.66;5066035;28;20196;-72
2022/10/01 01:07:11;;;;;;;4.03;2.78;;;;;;;15.80;nan;-24257.72;5075792;28;20216;-75
2022/10/01 01:09:40;;;;;;;4.32;2.97;;;;;;;15.36;nan;-24245.38;5076013;28;20652;-72
2022/10/01 01:12:23;;;;;;;3.58;2.67;;;;;;;15.68;nan;-24254.22;5073626;28;20216;-72
2022/10/01 01:15:13;;;;;;;4.95;3.10;;;;;;;15.25;nan;-24242.44;5076641;28;20173;-74
2022/10/01 01:18:08;;;;;;;4.80;2.42;;;;;;;15.63;nan;-24252.94;5087594;28;20645;-75
2022/10/01 01:20:58;;;;;;;4.10;2.42;;;;;;;15.61;nan;-24252.41;5072630;28;20575;-72
2022/10/01 01:24:01;;;;;;;4.82;3.15;;;;;;;15.56;nan;-24250.84;5075754;28;20236;-73
2022/10/01 01:26:48;;;;;;;4.47;2.80;;;;;;;15.56;nan;-24250.84;5075973;28;20588;-74
2022/10/01 01:29:27;;;;;;;4.82;2.83;;;;;;;15.48;nan;-24248.75;5073878;28;20314;-73
2022/10/01 01:31:57;;;;;;;3.75;2.55;;;;;;;15.47;nan;-24248.63;5074713;28;20182;-73
2022/10/01 01:34:28;;;;;;;5.07;3.22;;;;;;;14.97;nan;-24234.75;5076052;28;20269;-73
2022/10/01 01:37:11;;;;;;;3.88;3.03;;;;;;;15.26;nan;-24242.59;5075352;28;20196;-73
2022/10/01 01:39:39;;;;;;;3.92;2.85;;;;;;;14.90;nan;-24232.78;5072445;28;20201;-73
2022/10/01 01:42:10;;;;;;;4.40;3.05;;;;;;;15.19;nan;-24240.63;5075694;28;20588;-73
2022/10/01 01:44:40;;;;;;;4.05;2.90;;;;;;;14.71;nan;-24227.47;5063465;28;20189;-70
2022/10/01 01:47:09;;;;;;;4.82;2.72;;;;;;;15.14;nan;-24239.38;5056633;28;20260;-74
2022/10/01 01:49:38;;;;;;;5.15;2.78;;;;;;;14.71;nan;-24227.31;5075383;28;20182;-73
2022/10/01 01:52:08;;;;;;;3.95;3.08;;;;;;;14.71;nan;-24227.47;5073292;28;20379;-73
2022/10/01 01:54:35;;;;;;;4.22;2.83;;;;;;;14.71;nan;-24227.31;5074538;28;20173;-72
2022/10/01 01:57:03;;;;;;;4.15;3.35;;;;;;;15.01;nan;-24235.88;5074527;28;20255;-74
2022/10/01 01:59:31;;;;;;;3.47;2.65;;;;;;;15.03;nan;-24236.44;5072951;28;20166;-73
2022/10/01 02:01:57;;;;;;;8.77;3.58;;;;;;;14.87;nan;-24231.94;5074101;28;20681;-76
2022/10/01 02:04:31;;;;;;;3.92;2.80;;;;;;;14.92;nan;-24233.22;5076540;28;20274;-70
2022/10/01 02:07:22;;;;;;;4.03;3.10;;;;;;;14.98;nan;-24234.88;5072547;28;20576;-76
2022/10/01 02:10:11;;;;;;;4.72;3.00;;;;;;;14.85;nan;-24231.38;5072749;28;21382;-71
2022/10/01 02:13:07;;;;;;;5.68;3.60;;;;;;;14.86;nan;-24231.53;5075560;28;20231;-72
2022/10/01 02:16:00;;;;;;;4.85;2.72;;;;;;;14.82;nan;-24230.41;5073693;28;21315;-74
2022/10/01 02:18:59;;;;;;;6.00;3.58;;;;;;;14.81;nan;-24230.25;5071479;28;20174;-71
2022/10/01 02:21:37;;;;;;;3.85;2.88;;;;;;;14.80;nan;-24229.84;5072516;28;20244;-73
2022/10/01 02:24:19;;;;;;;4.70;3.20;;;;;;;14.73;nan;-24228.03;5074083;28;20180;-72
2022/10/01 02:26:48;;;;;;;4.20;3.33;;;;;;;14.29;nan;-24215.69;5073707;28;20200;-73
2022/10/01 02:29:18;;;;;;;3.60;3.00;;;;;;;14.39;nan;-24218.47;5075390;28;20179;-72
2022/10/01 02:31:46;;;;;;;3.83;2.90;;;;;;;14.67;nan;-24226.19;5075808;28;20617;-72
2022/10/01 02:34:14;;;;;;;6.55;2.90;;;;;;;14.27;nan;-24215.13;5075354;28;20351;-75
2022/10/01 02:36:43;;;;;;;5.18;3.40;;;;;;;14.59;nan;-24224.09;5076726;28;20281;-75
2022/10/01 02:39:10;;;;;;;5.40;3.63;;;;;;;14.46;nan;-24220.44;5075574;28;20181;-73
2022/10/01 02:41:36;;;;;;;5.05;3.40;;;;;;;14.67;nan;-24226.34;5061425;28;20193;-73
2022/10/01 02:44:29;;;;;;;6.70;4.47;;;;;;;14.77;nan;-24229.00;5073239;28;20555;-70
2022/10/01 02:47:06;;;;;;;7.40;3.47;;;;;;;14.77;nan;-24229.13;5070257;28;20207;-70
2022/10/01 02:49:34;;;;;;;3.85;3.15;;;;;;;14.38;nan;-24218.22;5052649;28;20173;-73
2022/10/01 02:52:05;;;;;;;4.57;3.08;;;;;;;14.77;nan;-24229.13;5073106;28;20242;-73
2022/10/01 02:54:39;;;;;;;4.25;2.83;;;;;;;14.50;nan;-24221.56;5071742;28;20196;-72
2022/10/01 02:57:23;;;;;;;4.63;2.83;;;;;;;14.58;nan;-24223.81;5074399;28;20676;-72
2022/10/01 03:00:10;;;;;;;7.38;3.88;;;;;;;14.79;nan;-24229.69;5077894;28;20254;-74
2022/10/01 03:02:36;;;;;;;4.35;2.85;;;;;;;14.62;nan;-24224.94;5102635;28;20183;-73
2022/10/01 03:05:01;;;;;;;6.88;3.90;;;;;;;14.57;nan;-24223.66;5085332;28;20535;-74
2022/10/01 03:07:29;;;;;;;5.85;3.97;;;;;;;14.79;nan;-24229.69;5075211;28;20179;-75
2022/10/01 03:09:55;;;;;;;5.32;3.00;;;;;;;14.61;nan;-24224.50;5068709;28;20644;-73
2022/10/01 03:12:22;;;;;;;7.22;3.65;;;;;;;14.41;nan;-24219.19;5076015;28;21505;-74
2022/10/01 03:14:47;;;;;;;5.28;3.50;;;;;;;14.43;nan;-24219.75;5074993;28;20170;-70
2022/10/01 03:17:13;;;;;;;4.55;3.38;;;;;;;14.43;nan;-24219.75;5076802;28;20209;-74
2022/10/01 03:19:39;;;;;;;4.28;3.15;;;;;;;14.70;nan;-24227.19;5078481;28;20186;-74
2022/10/01 03:22:06;;;;;;;4.60;2.90;;;;;;;14.39;nan;-24218.47;5076433;28;20226;-73
2022/10/01 03:24:32;;;;;;;4.40;3.20;;;;;;;14.46;nan;-24220.44;5077452;28;20224;-76
2022/10/01 03:26:57;;;;;;;5.80;3.10;;;;;;;14.67;nan;-24226.34;5076516;28;20213;-74
2022/10/01 03:29:24;;;;;;;3.97;3.00;;;;;;;14.59;nan;-24224.09;5073295;28;20188;-73
2022/10/01 03:31:50;;;;;;;9.07;3.05;;;;;;;14.74;nan;-24228.16;5074909;28;20628;-75
2022/10/01 03:34:15;;;;;;;4.65;3.25;;;;;;;14.41;nan;-24219.03;5077032;28;20288;-71
2022/10/01 03:36:42;;;;;;;3.83;2.78;;;;;;;14.23;nan;-24214.00;5079145;28;20304;-75
2022/10/01 03:39:07;;;;;;;4.95;3.25;;;;;;;14.59;nan;-24224.09;5076184;28;20205;-75
2022/10/01 03:41:33;;;;;;;5.32;3.65;;;;;;;14.70;nan;-24227.03;5064930;28;20217;-73
2022/10/01 03:43:59;;;;;;;6.28;3.40;;;;;;;14.43;nan;-24219.59;5074429;28;20173;-73
2022/10/01 03:46:25;;;;;;;4.55;2.80;;;;;;;14.34;nan;-24217.06;5077521;28;20268;-74
2022/10/01 03:48:51;;;;;;;3.55;2.60;;;;;;;14.36;nan;-24217.66;5074478;28;20534;-76
2022/10/01 03:51:19;;;;;;;3.67;2.88;;;;;;;14.20;nan;-24213.28;5072951;28;20209;-73
2022/10/01 03:53:46;;;;;;;4.68;3.17;;;;;;;14.75;nan;-24228.56;5078448;28;20177;-74
2022/10/01 03:56:13;;;;;;;4.55;3.33;;;;;;;14.70;nan;-24227.03;5102819;28;20231;-75
2022/10/01 03:58:38;;;;;;;5.13;3.63;;;;;;;14.42;nan;-24219.31;5094359;28;20187;-74
2022/10/01 04:01:03;;;;;;;3.67;2.90;;;;;;;14.56;nan;-24223.25;5093183;28;20551;-70
2022/10/01 04:03:29;;;;;;;4.93;3.55;;;;;;;14.78;nan;-24229.41;5093320;28;20178;-73
2022/10/01 04:05:55;;;;;;;6.25;3.83;;;;;;;14.93;nan;-24233.50;5093757;28;20232;-73
2022/10/01 04:08:21;;;;;;;4.88;3.15;;;;;;;14.68;nan;-24226.47;5092779;28;20165;-71
2022/10/01 04:10:48;;;;;;;4.30;3.10;;;;;;;14.47;nan;-24220.88;5093236;28;20611;-76
2022/10/01 04:13:14;;;;;;;5.32;3.45;;;;;;;14.57;nan;-24223.66;5093264;28;20231;-73
2022/10/01 04:15:40;;;;;;;5.70;3.42;;;;;;;14.84;nan;-24231.09;5092987;28;20347;-73
2022/10/01 04:18:06;;;;;;;3.70;2.75;;;;;;;14.77;nan;-24229.13;5091572;28;20607;-74
2022/10/01 04:20:33;;;;;;;5.90;3.40;;;;;;;14.73;nan;-24227.88;5074562;28;20197;-73
2022/10/01 04:22:59;;;;;;;6.70;3.63;;;;;;;14.76;nan;-24228.84;5092686;28;20224;-73
2022/10/01 04:25:26;;;;;;;5.32;3.58;;;;;;;14.57;nan;-24223.66;5090428;28;20236;-74
2022/10/01 04:28:04;;;;;;;7.05;3.65;;;;;;;14.58;nan;-24223.81;5097683;28;20264;-72
2022/10/01 04:30:32;;;;;;;5.03;3.38;;;;;;;14.89;nan;-24232.38;5091072;28;20237;-73
2022/10/01 04:32:58;;;;;;;6.03;3.55;;;;;;;14.97;nan;-24234.59;5096441;28;20180;-74
2022/10/01 04:35:24;;;;;;;6.82;3.60;;;;;;;15.01;nan;-24235.72;5091299;28;20177;-72
2022/10/01 04:38:15;;;;;;;6.25;3.30;;;;;;;15.15;nan;-24239.50;5092985;28;20216;-73
2022/10/01 04:40:41;;;;;;;4.18;3.13;;;;;;;15.01;nan;-24235.72;5088791;28;20758;-73
2022/10/01 04:43:12;;;;;;;4.35;3.35;;;;;;;14.94;nan;-24233.75;5092741;28;20170;-70
2022/10/01 04:45:37;;;;;;;5.55;3.95;;;;;;;14.69;nan;-24226.91;5093232;28;20177;-73
2022/10/01 04:48:04;;;;;;;7.75;3.63;;;;;;;15.06;nan;-24237.00;5085173;28;20178;-73
2022/10/01 04:50:29;;;;;;;5.60;3.83;;;;;;;15.28;nan;-24243.28;5097120;28;20250;-71
2022/10/01 04:52:55;;;;;;;6.00;3.75;;;;;;;14.99;nan;-24235.31;5098456;28;20182;-71
2022/10/01 04:55:21;;;;;;;5.78;3.83;;;;;;;15.32;nan;-24244.41;5092712;28;20531;-75
2022/10/01 04:57:47;;;;;;;4.57;3.47;;;;;;;15.37;nan;-24245.81;5092872;28;20246;-73
2022/10/01 05:00:23;;;;;;;5.28;3.55;;;;;;;15.11;nan;-24238.38;5092907;28;20632;-72
2022/10/01 05:02:49;;;;;;;6.07;3.63;;;;;;;15.54;nan;-24250.31;5092378;28;20603;-72
2022/10/01 05:05:17;;;;;;;6.68;3.65;;;;;;;15.81;nan;-24257.84;5092457;28;20177;-77
2022/10/01 05:07:42;;;;;;;5.40;3.60;;;;;;;15.68;nan;-24254.22;5092269;28;20555;-73
2022/10/01 05:10:13;;;;;;;5.20;3.03;;;;;;;15.79;nan;-24257.44;5092922;28;20161;-74
2022/10/01 05:12:38;;;;;;;5.93;3.53;;;;;;;15.91;nan;-24260.66;5092484;28;20259;-71
2022/10/01 05:15:04;;;;;;;5.10;3.60;;;;;;;15.86;nan;-24259.38;5091926;28;20648;-74
2022/10/01 05:17:31;;;;;;;3.80;2.83;;;;;;;15.65;nan;-24253.50;5092040;28;20208;-72
2022/10/01 05:19:57;;;;;;;5.57;3.53;;;;;;;15.49;nan;-24249.03;5091528;28;20693;-72
2022/10/01 05:22:22;;;;;;;5.53;3.47;;;;;;;15.63;nan;-24252.81;5091961;28;20309;-74
2022/10/01 05:24:48;;;;;;;4.53;3.05;;;;;;;15.46;nan;-24248.19;5092157;28;20171;-76
2022/10/01 05:27:13;;;;;;;6.20;3.63;;;;;;;15.81;nan;-24258.00;5091919;28;20273;-75
2022/10/01 05:29:40;;;;;;;5.32;3.08;;;;;;;15.79;nan;-24257.44;5091956;28;20165;-73
2022/10/01 05:32:07;;;;;;;4.75;3.17;;;;;;;16.12;nan;-24266.53;5092122;28;20287;-76
2022/10/01 05:34:32;;;;;;;5.75;3.13;;;;;;;16.33;nan;-24272.41;5091815;28;20177;-75
2022/10/01 05:36:57;;;;;;;6.22;4.03;;;;;;;16.29;nan;-24271.28;5091511;28;20298;-74
2022/10/01 05:39:23;;;;;;;4.85;3.30;;;;;;;16.66;nan;-24281.50;5091948;28;20212;-73
2022/10/01 05:41:49;;;;;;;7.10;4.03;;;;;;;17.05;nan;-24292.09;5073674;28;20200;-75
2022/10/01 05:44:15;;;;;;;5.13;3.38;;;;;;;17.43;nan;-24302.72;5092054;28;20188;-73
2022/10/01 05:46:41;;;;;;;6.35;3.08;;;;;;;17.34;nan;-24300.19;5091770;28;20166;-75
2022/10/01 05:49:07;;;;;;;5.05;3.45;;;;;;;17.57;nan;-24306.63;5091542;28;20477;-73
2022/10/01 05:51:32;;;;;;;6.72;3.38;;;;;;;17.75;nan;-24311.50;5091813;28;20632;-75
2022/10/01 05:53:59;;;;;;;3.92;2.83;;;;;;;17.87;nan;-24314.84;5091354;28;20208;-73
2022/10/01 05:56:24;;;;;;;4.22;3.35;;;;;;;17.89;nan;-24315.41;5091772;28;20291;-72
2022/10/01 05:58:50;;;;;;;5.75;2.97;;;;;;;17.77;nan;-24311.91;5091909;28;20295;-71
2022/10/01 06:01:15;;;;;;;4.53;2.90;;;;;;;17.64;nan;-24308.56;5091308;28;20173;-74
2022/10/01 06:03:41;;;;;;;4.03;3.05;;;;;;;17.68;nan;-24309.56;5091433;28;20184;-73
2022/10/01 06:06:07;;;;;;;5.32;3.45;;;;;;;18.21;nan;-24324.19;5091884;28;20651;-74
2022/10/01 06:08:33;;;;;;;7.40;3.60;;;;;;;18.28;nan;-24326.13;5091861;28;20553;-75
2022/10/01 06:11:00;;;;;;;4.20;2.95;;;;;;;18.68;nan;-24337.00;5091793;28;20165;-72
2022/10/01 06:13:27;;;;;;;5.88;3.95;;;;;;;18.62;nan;-24335.47;5091609;28;20176;-74
2022/10/01 06:15:52;;;;;;;4.28;2.90;;;;;;;18.64;nan;-24335.91;5091455;28;20197;-72
2022/10/01 06:18:18;;;;;;;5.20;2.70;;;;;;;18.78;nan;-24339.78;5091085;28;20627;-75
2022/10/01 06:20:43;;;;;;;4.25;2.70;;;;;;;19.19;nan;-24351.22;5091510;28;20165;-75
2022/10/01 06:23:11;;;;;;;4.28;3.08;;;;;;;19.21;nan;-24351.75;5091611;28;20323;-75
2022/10/01 06:25:38;;;;;;;4.18;2.65;;;;;;;19.46;nan;-24358.44;5091419;28;20223;-73
2022/10/01 06:28:05;;;;;;;4.95;2.85;;;;;;;19.42;nan;-24357.59;5091650;28;20173;-72
2022/10/01 06:30:32;;;;;;;6.10;3.08;;;;;;;19.65;nan;-24363.72;5089904;28;20234;-75
2022/10/01 06:33:05;;;;;;;4.85;2.95;;;;;;;20.11;nan;-24376.50;5093572;28;20169;-74
2022/10/01 06:35:32;;;;;;;4.53;2.67;;;;;;;19.80;nan;-24367.91;5095658;28;20188;-75
2022/10/01 06:38:00;;;;;;;9.23;3.72;;;;;;;19.27;nan;-24353.44;5095218;28;20188;-74
2022/10/01 06:40:26;;;;;;;5.05;2.90;;;;;;;19.46;nan;-24358.59;5095356;28;20283;-75
2022/10/01 06:42:51;;;;;;;3.97;2.78;;;;;;;19.52;nan;-24360.25;5095035;28;20165;-74
2022/10/01 06:45:17;;;;;;;3.30;2.40;;;;;;;19.89;nan;-24370.25;5095371;28;20201;-73
2022/10/01 06:47:43;;;;;;;3.85;2.60;;;;;;;19.72;nan;-24365.69;5094882;28;20559;-76
2022/10/01 06:50:09;;;;;;;7.43;2.95;;;;;;;19.55;nan;-24361.09;5094653;28;20537;-77
2022/10/01 06:52:50;;;;;;;3.85;2.65;;;;;;;19.79;nan;-24367.63;5094571;28;20177;-74
2022/10/01 06:55:21;;;;;;;3.00;2.30;;;;;;;20.02;nan;-24374.00;5094887;28;20158;-75
2022/10/01 06:57:47;;;;;;;3.70;2.47;;;;;;;20.24;nan;-24380.00;5094996;28;20549;-72
2022/10/01 07:00:13;;;;;;;8.43;2.50;;;;;;;20.27;nan;-24380.81;5094686;28;20230;-74
2022/10/01 07:02:39;;;;;;;3.30;2.28;;;;;;;20.09;nan;-24375.97;5095215;28;20624;-73
2022/10/01 07:05:06;;;;;;;3.75;2.65;;;;;;;20.24;nan;-24380.13;5094951;28;20230;-76
2022/10/01 07:07:34;;;;;;;3.22;2.53;;;;;;;20.67;nan;-24391.78;5094671;28;20181;-74
2022/10/01 07:09:59;;;;;;;4.30;3.03;;;;;;;20.96;nan;-24399.84;5094435;28;20177;-73
2022/10/01 07:12:26;;;;;;;2.88;2.40;;;;;;;21.10;nan;-24403.72;5094342;28;20597;-72
2022/10/01 07:14:52;;;;;;;4.88;2.72;;;;;;;21.06;nan;-24402.59;5076574;28;20507;-72
2022/10/01 07:17:17;;;;;;;5.45;2.40;;;;;;;20.87;nan;-24397.34;5094322;28;20201;-71
2022/10/01 07:19:42;;;;;;;4.30;2.60;;;;;;;21.15;nan;-24405.09;5094428;28;20264;-75
2022/10/01 07:22:08;;;;;;;5.43;2.58;;;;;;;21.10;nan;-24403.56;5076099;28;20235;-75
2022/10/01 07:24:34;;;;;;;3.05;2.28;;;;;;;21.38;nan;-24411.34;5092374;28;20645;-72
2022/10/01 07:26:59;;;;;;;5.63;2.90;;;;;;;21.53;nan;-24415.50;5094185;28;20178;-74
2022/10/01 07:29:25;;;;;;;3.95;2.75;;;;;;;21.88;nan;-24424.91;5094166;28;20193;-72
2022/10/01 07:31:58;;;;;;;4.38;2.58;;;;;;;22.29;nan;-24436.28;5094210;28;20165;-76
2022/10/01 07:34:24;;;;;;;5.70;3.15;;;;;;;22.62;nan;-24445.13;5092090;28;20660;-73
2022/10/01 07:36:50;;;;;;;4.78;3.00;;;;;;;22.12;nan;-24431.44;5093694;28;20201;-76
2022/10/01 07:39:15;;;;;;;3.92;2.80;;;;;;;22.37;nan;-24438.34;5093785;28;20663;-74
2022/10/01 07:41:42;;;;;;;5.57;3.13;;;;;;;22.74;nan;-24448.59;5093880;28;20174;-73
2022/10/01 07:44:10;;;;;;;3.65;2.70;;;;;;;23.04;nan;-24456.75;5093536;28;20688;-72
2022/10/01 07:46:37;;;;;;;4.30;2.58;;;;;;;23.38;nan;-24466.00;5093429;28;20651;-73
2022/10/01 07:49:03;;;;;;;3.38;2.30;;;;;;;23.50;nan;-24469.19;5093858;28;20503;-76
2022/10/01 07:51:29;;;;;;;4.32;3.00;;;;;;;23.65;nan;-24473.31;5092954;28;20631;-75
2022/10/01 07:53:54;;;;;;;2.70;2.25;;;;;;;23.53;nan;-24470.00;5093386;28;20173;-76
2022/10/01 07:56:20;;;;;;;4.20;2.70;;;;;;;23.56;nan;-24470.97;5093689;28;20267;-73
2022/10/01 07:58:45;;;;;;;4.50;2.70;;;;;;;24.18;nan;-24487.81;5093723;28;20173;-73
2022/10/01 08:01:10;;;;;;;4.20;2.90;;;;;;;24.24;nan;-24489.47;5093586;28;20571;-72
2022/10/01 08:03:36;;;;;;;5.20;3.00;;;;;;;24.04;nan;-24483.94;5093540;28;20189;-73
2022/10/01 08:06:08;;;;;;;4.93;2.70;;;;;;;24.40;nan;-24493.88;5075354;28;20227;-74
2022/10/01 08:08:33;;;;;;;3.88;2.78;;;;;;;24.45;nan;-24495.25;5093802;28;20158;-72
2022/10/01 08:11:01;;;;;;;3.47;2.50;;;;;;;24.49;nan;-24496.34;5093478;28;20537;-73
2022/10/01 08:13:26;;;;;;;3.65;2.70;;;;;;;24.36;nan;-24492.78;5075140;28;20591;-73
2022/10/01 08:15:53;;;;;;;4.85;2.97;;;;;;;24.77;nan;-24503.78;5075145;28;20308;-78
2022/10/01 08:18:20;;;;;;;4.88;2.83;;;;;;;24.74;nan;-24503.09;5079047;28;20216;-73
2022/10/01 08:20:46;;;;;;;5.32;3.05;;;;;;;25.28;nan;-24517.72;5089251;28;20261;-73
2022/10/01 08:23:13;;;;;;;3.53;2.50;;;;;;;25.16;nan;-24514.41;5094986;28;20659;-73
2022/10/01 08:25:40;;;;;;;4.75;2.72;;;;;;;24.96;nan;-24509.03;5097403;28;20185;-74
2022/10/01 08:28:06;;;;;;;3.70;2.60;;;;;;;25.38;nan;-24520.47;5095284;28;20623;-73
2022/10/01 08:30:32;;;;;;;4.68;2.28;;;;;;;25.30;nan;-24518.41;5093209;28;20181;-72
2022/10/01 08:32:59;;;;;;;4.72;2.83;;;;;;;25.31;nan;-24518.53;5087359;28;20230;-73
2022/10/01 08:35:25;;;;;;;3.67;2.38;;;;;;;25.39;nan;-24520.88;5092638;28;20240;-76
2022/10/01 08:37:51;;;;;;;3.03;2.20;;;;;;;25.92;nan;-24535.31;5091576;28;20177;-72
2022/10/01 08:40:19;;;;;;;3.80;2.50;;;;;;;26.47;nan;-24550.00;5091311;28;20560;-72
2022/10/01 08:43:05;;;;;;;3.13;2.38;;;;;;;26.82;nan;-24559.75;5087596;28;20176;-77
2022/10/01 08:45:50;;;;;;;5.32;2.80;;;;;;;27.32;nan;-24573.22;5093110;28;20225;-73
2022/10/01 08:48:46;;;;;;;3.20;2.17;;;;;;;27.59;nan;-24580.59;5094649;28;20181;-75
2022/10/01 08:51:26;;;;;;;3.50;2.63;;;;;;;27.92;nan;-24589.50;5093444;28;20260;-73
2022/10/01 08:54:12;;;;;;;3.50;2.63;;;;;;;28.33;nan;-24600.47;5093315;28;20174;-73
2022/10/01 08:56:43;;;;;;;10.55;2.80;;;;;;;28.35;nan;-24601.00;5091845;28;20240;-74
2022/10/01 08:59:44;;;;;;;3.17;2.70;;;;;;;28.21;nan;-24597.19;5092397;28;20551;-76
2022/10/01 09:02:34;;;;;;;2.63;2.28;;;;;;;28.72;nan;-24611.00;5092784;28;20164;-73
2022/10/01 09:05:22;;;;;;;4.65;2.33;;;;;;;28.70;nan;-24610.44;5092376;28;20172;-76
2022/10/01 09:08:16;;;;;;;3.58;2.60;;;;;;;28.23;nan;-24597.72;5093162;28;20192;-73
2022/10/01 09:11:05;;;;;;;4.43;2.75;;;;;;;27.99;nan;-24591.44;5091372;28;20334;-73
2022/10/01 09:14:02;;;;;;;5.82;3.00;;;;;;;27.66;nan;-24582.38;5091030;28;20215;-74
2022/10/01 09:16:44;;;;;;;2.75;2.33;;;;;;;27.15;nan;-24568.69;5091303;28;20208;-72
2022/10/01 09:19:12;;;;;;;3.35;2.85;;;;;;;27.14;nan;-24568.41;5092409;28;20170;-72
2022/10/01 09:21:55;;;;;;;3.35;2.30;;;;;;;27.25;nan;-24571.28;5090773;28;20183;-72
2022/10/01 09:24:30;;;;;;;3.42;2.53;;;;;;;27.31;nan;-24572.94;5092377;28;20252;-72
2022/10/01 09:26:56;;;;;;;3.15;2.70;;;;;;;27.34;nan;-24573.63;5092414;28;20612;-75
2022/10/01 09:29:31;;;;;;;5.22;2.75;;;;;;;27.52;nan;-24578.69;5092213;28;20199;-72
2022/10/01 09:32:00;;;;;;;3.60;2.65;;;;;;;27.86;nan;-24587.88;5092190;28;20618;-74
2022/10/01 09:34:36;;;;;;;4.13;2.40;;;;;;;27.94;nan;-24589.91;5088672;28;20177;-75
2022/10/01 09:37:17;;;;;;;3.50;2.72;;;;;;;28.10;nan;-24594.44;5099591;28;20271;-73
2022/10/01 09:40:14;;;;;;;2.97;2.50;;;;;;;28.22;nan;-24597.59;5092257;28;20181;-73
2022/10/01 09:42:40;;;;;;;4.07;2.72;;;;;;;27.72;nan;-24583.91;5091540;28;20197;-75
2022/10/01 09:45:11;;;;;;;3.47;2.53;;;;;;;28.25;nan;-24598.28;5092021;28;20193;-73
2022/10/01 09:47:36;;;;;;;5.10;2.60;;;;;;;28.30;nan;-24599.66;5092140;28;20415;-74
2022/10/01 09:50:05;;;;;;;3.80;2.63;;;;;;;27.98;nan;-24591.16;5091785;28;20215;-74
2022/10/01 09:52:38;;;;;;;3.85;2.90;;;;;;;28.37;nan;-24601.69;5091669;28;20552;-72
2022/10/01 09:55:30;;;;;;;4.13;2.53;;;;;;;28.51;nan;-24605.38;5074235;28;20173;-74
2022/10/01 09:58:11;;;;;;;3.80;2.72;;;;;;;28.16;nan;-24595.94;5080719;28;20200;-74
2022/10/01 10:00:38;;;;;;;3.95;2.55;;;;;;;28.16;nan;-24595.94;5091977;28;20233;-74
2022/10/01 10:03:03;;;;;;;4.68;2.83;;;;;;;28.23;nan;-24597.88;5092269;28;20260;-74
2022/10/01 10:05:39;;;;;;;4.75;2.70;;;;;;;28.28;nan;-24599.22;5091457;28;20629;-75
2022/10/01 10:08:12;;;;;;;4.53;3.08;;;;;;;28.06;nan;-24593.34;5095882;28;20176;-72
2022/10/01 10:10:47;;;;;;;4.32;3.00;;;;;;;28.01;nan;-24591.97;5099157;28;20604;-74
2022/10/01 10:13:26;;;;;;;3.00;2.25;;;;;;;27.59;nan;-24580.59;5096416;28;20206;-75
2022/10/01 10:15:57;;;;;;;4.00;2.70;;;;;;;27.53;nan;-24578.81;5077686;28;20678;-74
2022/10/01 10:18:37;;;;;;;7.43;2.80;;;;;;;27.21;nan;-24570.31;5096031;28;20169;-72
2022/10/01 10:21:08;;;;;;;4.65;3.20;;;;;;;27.04;nan;-24565.53;5096710;28;20627;-73
2022/10/01 10:23:34;;;;;;;5.90;2.83;;;;;;;26.73;nan;-24557.28;5093105;28;20217;-76
2022/10/01 10:26:02;;;;;;;3.58;2.60;;;;;;;26.52;nan;-24551.38;5101392;28;20177;-76
2022/10/01 10:28:55;;;;;;;5.18;3.20;;;;;;;26.21;nan;-24543.16;5095644;28;20640;-75
2022/10/01 10:31:26;;;;;;;7.03;4.00;;;;;;;25.71;nan;-24529.41;5092920;28;20526;-72
2022/10/01 10:33:56;;;;;;;7.07;4.55;;;;;;;26.20;nan;-24542.88;5057890;28;20537;-74
2022/10/01 10:36:27;;;;;;;10.32;5.93;;;;;;;25.82;nan;-24532.44;5075641;28;20197;-73
2022/10/01 10:38:55;;;;;;;12.82;5.93;;;;;;;25.79;nan;-24531.75;5075217;28;20174;-76
2022/10/01 10:41:25;;;;;;;8.52;5.00;;;;;;;25.95;nan;-24536.13;5075319;28;20174;-73
2022/10/01 10:43:55;;;;;;;9.35;5.50;;;;;;;25.95;nan;-24536.13;5075489;28;20174;-72
2022/10/01 10:46:29;;;;;;;9.35;5.15;;;;;;;25.96;nan;-24536.28;5075228;28;20169;-77
2022/10/01 10:49:04;;;;;;;5.72;3.90;;;;;;;25.64;nan;-24527.63;5075032;28;20245;-74
2022/10/01 10:51:42;;;;;;;5.78;3.72;;;;;;;25.81;nan;-24532.16;5080280;28;20222;-74
2022/10/01 10:54:43;;;;;;;4.50;3.22;;;;;;;26.11;nan;-24540.41;5094589;28;20172;-75
2022/10/01 10:57:27;;;;;;;8.73;3.50;;;;;;;26.23;nan;-24543.56;5093735;28;20579;-74
2022/10/01 11:00:06;;;;;;;6.00;3.38;;;;;;;26.16;nan;-24541.78;5094056;28;20611;-74
2022/10/01 11:02:32;;;;;;;5.60;3.50;;;;;;;26.04;nan;-24538.47;5094542;28;20157;-71
2022/10/01 11:05:10;;;;;;;6.57;3.60;;;;;;;25.44;nan;-24522.25;5076085;28;20255;-73
2022/10/01 11:07:36;;;;;;;5.63;3.30;;;;;;;25.48;nan;-24523.34;5094511;28;20642;-75
2022/10/01 11:10:15;;;;;;;6.88;3.40;;;;;;;25.48;nan;-24523.22;5094296;28;20170;-72
2022/10/01 11:12:49;;;;;;;5.78;3.47;;;;;;;25.16;nan;-24514.53;5094798;28;20210;-73
2022/10/01 11:15:23;;;;;;;5.90;4.00;;;;;;;24.91;nan;-24507.66;5094828;28;20632;-76
2022/10/01 11:18:17;;;;;;;4.25;3.25;;;;;;;24.35;nan;-24492.50;5093863;28;20173;-71
2022/10/01 11:21:06;;;;;;;7.43;3.72;;;;;;;24.67;nan;-24501.03;5094798;28;20173;-73
2022/10/01 11:23:47;;;;;;;8.07;4.43;;;;;;;24.89;nan;-24507.09;5094374;28;20213;-77
2022/10/01 11:26:47;;;;;;;4.95;3.22;;;;;;;24.81;nan;-24505.03;5094394;28;20172;-71
2022/10/01 11:29:13;;;;;;;7.72;4.38;;;;;;;24.46;nan;-24495.53;5094169;28;20185;-73
2022/10/01 11:32:06;;;;;;;5.70;4.03;;;;;;;24.90;nan;-24507.38;5094274;28;20205;-75
2022/10/01 11:35:03;;;;;;;4.57;3.00;;;;;;;24.92;nan;-24508.06;5093664;28;20169;-71
2022/10/01 11:37:57;;;;;;;5.82;3.55;;;;;;;25.39;nan;-24520.88;5094117;28;20193;-70
2022/10/01 11:40:28;;;;;;;5.45;3.65;;;;;;;25.39;nan;-24520.72;5094505;28;20252;-73
2022/10/01 11:43:00;;;;;;;4.75;3.20;;;;;;;25.11;nan;-24513.16;5094018;28;20589;-72
2022/10/01 11:45:31;;;;;;;5.75;4.00;;;;;;;25.29;nan;-24518.13;5075614;28;20547;-76
2022/10/01 11:48:06;;;;;;;6.35;3.78;;;;;;;25.29;nan;-24517.97;5093710;28;20249;-72
2022/10/01 11:50:41;;;;;;;6.15;3.85;;;;;;;25.64;nan;-24527.63;5075201;28;20177;-74
2022/10/01 11:53:31;;;;;;;6.03;3.75;;;;;;;25.69;nan;-24528.84;5093669;28;20161;-73
2022/10/01 11:59:20;;;;;;;5.72;3.80;;;;;;;25.97;nan;-24536.56;5093900;28;20266;-73
2022/10/01 12:01:57;;;;;;;6.57;3.40;;;;;;;25.99;nan;-24536.97;5075540;28;20196;-74
2022/10/01 12:04:41;;;;;;;8.13;3.60;;;;;;;26.50;nan;-24550.84;5093965;28;20169;-73